Time;durP1;ratioP1;P1;durP2;ratioP2;P2;SDS_P1;SDS_P2;PMS_P1;PMS_P2;Temp;Humidity;BMP_temperature;BMP_pressure;BME280_temperature;BME280_humidity;BME280_pressure;Samples;Min_cycle;Max_cycle;Signal;HPM_P1;HPM_P2
2024/01/30 00:02:03;;;;;;;18.40;2.72;;;;;;;;;;5071127;28;20035;-29
2024/01/30 00:04:30;;;;;;;22.50;3.47;;;;;;;;;;5070505;28;20041;-30
2024/01/30 00:06:57;;;;;;;27.35;3.22;;;;;;;;;;5070785;28;20090;-32
2024/01/30 00:09:24;;;;;;;22.85;3.00;;;;;;;;;;5070917;28;20025;-29
2024/01/30 00:11:51;;;;;;;23.85;3.00;;;;;;;;;;5071138;28;20056;-29
2024/01/30 00:14:18;;;;;;;20.40;3.47;;;;;;;;;;5069635;28;20033;-29
2024/01/30 00:16:47;;;;;;;23.33;4.55;;;;;;;;;;5070750;28;20032;-29
2024/01/30 00:19:14;;;;;;;39.33;5.80;;;;;;;;;;5057582;28;20065;-29
2024/01/30 00:21:41;;;;;;;38.95;6.43;;;;;;;;;;5063408;28;20028;-29
2024/01/30 00:24:08;;;;;;;43.92;6.35;;;;;;;;;;5066926;28;20033;-29
2024/01/30 00:26:35;;;;;;;58.63;8.18;;;;;;;;;;5070643;28;20485;-29
2024/01/30 00:29:02;;;;;;;56.85;7.70;;;;;;;;;;5071881;28;20059;-29
2024/01/30 00:31:29;;;;;;;50.55;7.75;;;;;;;;;;5074018;28;20044;-29
2024/01/30 00:33:56;;;;;;;42.58;7.53;;;;;;;;;;5074260;28;20043;-29
2024/01/30 00:36:23;;;;;;;35.72;6.43;;;;;;;;;;5074164;28;20024;-29
2024/01/30 00:38:50;;;;;;;32.65;4.88;;;;;;;;;;5074335;28;20032;-29
2024/01/30 00:41:19;;;;;;;27.65;3.95;;;;;;;;;;5074166;28;20470;-29
2024/01/30 00:43:46;;;;;;;20.77;3.47;;;;;;;;;;5074041;28;20112;-29
2024/01/30 00:46:13;;;;;;;35.78;3.83;;;;;;;;;;5072076;28;20102;-29
2024/01/30 00:48:43;;;;;;;30.50;4.53;;;;;;;;;;5073251;28;20114;-30
2024/01/30 00:51:10;;;;;;;23.00;3.55;;;;;;;;;;5070287;28;20032;-30
2024/01/30 00:53:37;;;;;;;39.25;3.50;;;;;;;;;;5070352;28;20066;-29
2024/01/30 00:56:04;;;;;;;28.17;3.90;;;;;;;;;;5073863;28;20505;-29
2024/01/30 00:58:31;;;;;;;59.15;14.27;;;;;;;;;;5073727;28;20039;-29
2024/01/30 01:00:58;;;;;;;43.53;8.63;;;;;;;;;;5073803;28;20028;-29
2024/01/30 01:03:25;;;;;;;26.17;5.32;;;;;;;;;;5073640;28;20032;-29
2024/01/30 01:05:52;;;;;;;20.63;3.28;;;;;;;;;;5073147;28;20071;-29
2024/01/30 01:08:20;;;;;;;24.95;3.05;;;;;;;;;;5073672;28;20142;-29
2024/01/30 01:10:47;;;;;;;22.73;2.85;;;;;;;;;;5068495;28;20503;-29
2024/01/30 01:13:14;;;;;;;25.27;2.42;;;;;;;;;;5065148;28;20035;-29
2024/01/30 01:15:41;;;;;;;13.23;2.60;;;;;;;;;;5061416;28;20103;-29
2024/01/30 01:18:08;;;;;;;17.30;2.13;;;;;;;;;;5073400;28;20477;-29
2024/01/30 01:20:34;;;;;;;16.58;2.30;;;;;;;;;;5069483;28;20043;-29
2024/01/30 01:23:01;;;;;;;13.07;2.10;;;;;;;;;;5062116;28;20036;-29
2024/01/30 01:25:28;;;;;;;10.60;2.35;;;;;;;;;;5070477;28;20044;-29
2024/01/30 01:27:56;;;;;;;9.45;2.28;;;;;;;;;;5073066;28;20044;-29
2024/01/30 01:30:23;;;;;;;15.00;2.10;;;;;;;;;;5073129;28;20145;-29
2024/01/30 01:32:54;;;;;;;16.10;2.05;;;;;;;;;;5072540;28;20036;-29
2024/01/30 01:35:25;;;;;;;17.07;2.30;;;;;;;;;;5067252;28;20063;-29
2024/01/30 01:37:55;;;;;;;14.02;2.25;;;;;;;;;;5066383;28;20386;-29
2024/01/30 01:40:25;;;;;;;37.30;3.42;;;;;;;;;;5068831;28;20094;-29
2024/01/30 01:42:53;;;;;;;14.52;2.40;;;;;;;;;;5059053;28;20025;-29
2024/01/30 01:45:20;;;;;;;12.13;1.98;;;;;;;;;;5072343;28;20051;-29
2024/01/30 01:47:49;;;;;;;10.13;2.10;;;;;;;;;;5063766;28;20041;-29
2024/01/30 01:50:19;;;;;;;12.23;2.20;;;;;;;;;;5070767;28;20047;-29
2024/01/30 01:52:49;;;;;;;18.13;2.40;;;;;;;;;;5063875;28;20044;-29
2024/01/30 01:55:21;;;;;;;13.35;2.20;;;;;;;;;;5069383;28;20037;-29
2024/01/30 01:57:48;;;;;;;;;;;;;;;;;;5065052;28;20040;-29
2024/01/30 02:00:15;;;;;;;24.70;2.45;;;;;;;;;;5059141;28;19914;-29
2024/01/30 02:02:43;;;;;;;28.52;2.53;;;;;;;;;;5054699;28;20063;-29
2024/01/30 02:05:10;;;;;;;30.77;3.00;;;;;;;;;;5067492;28;20037;-30
2024/01/30 02:07:38;;;;;;;24.77;3.38;;;;;;;;;;5062890;28;20017;-29
2024/01/30 02:10:05;;;;;;;20.20;3.00;;;;;;;;;;5065662;28;20511;-29
2024/01/30 02:12:33;;;;;;;23.85;3.53;;;;;;;;;;5063219;28;20453;-29
2024/01/30 02:15:00;;;;;;;35.90;4.88;;;;;;;;;;5059280;28;20181;-30
2024/01/30 02:17:27;;;;;;;37.42;4.70;;;;;;;;;;5061591;28;20028;-30
2024/01/30 02:19:54;;;;;;;35.25;5.55;;;;;;;;;;5060851;28;20502;-30
2024/01/30 02:22:22;;;;;;;34.58;4.88;;;;;;;;;;5063878;28;20104;-31
2024/01/30 02:24:49;;;;;;;38.85;4.82;;;;;;;;;;5068461;28;20037;-29
2024/01/30 02:27:16;;;;;;;26.30;4.15;;;;;;;;;;5064257;28;20068;-30
2024/01/30 02:29:43;;;;;;;20.30;4.05;;;;;;;;;;5066764;28;20029;-28
2024/01/30 02:32:10;;;;;;;33.55;4.72;;;;;;;;;;5061227;28;20446;-31
2024/01/30 02:34:37;;;;;;;36.22;8.38;;;;;;;;;;5061077;28;20463;-30
2024/01/30 02:37:04;;;;;;;59.75;10.75;;;;;;;;;;5055865;28;20364;-29
2024/01/30 02:39:34;;;;;;;59.50;10.68;;;;;;;;;;5060093;28;20486;-31
2024/01/30 02:42:01;;;;;;;50.60;10.15;;;;;;;;;;5064705;28;20039;-30
2024/01/30 02:44:28;;;;;;;69.57;12.45;;;;;;;;;;5063437;28;20032;-35
2024/01/30 02:46:55;;;;;;;48.92;11.38;;;;;;;;;;5056059;28;20037;-31
2024/01/30 02:49:22;;;;;;;50.60;10.52;;;;;;;;;;5061902;28;20429;-32
2024/01/30 02:51:49;;;;;;;39.90;8.90;;;;;;;;;;5066559;28;20032;-31
2024/01/30 02:54:16;;;;;;;30.40;7.05;;;;;;;;;;5067067;28;20111;-31
2024/01/30 02:56:43;;;;;;;36.60;6.78;;;;;;;;;;5059710;28;20030;-30
2024/01/30 02:59:10;;;;;;;24.05;5.07;;;;;;;;;;5068831;28;20497;-31
2024/01/30 03:01:44;;;;;;;19.90;4.05;;;;;;;;;;5069663;28;20040;-31
2024/01/30 03:04:11;;;;;;;25.60;3.80;;;;;;;;;;5065876;28;20044;-31
2024/01/30 03:06:38;;;;;;;32.10;4.18;;;;;;;;;;5065793;28;20548;-30
2024/01/30 03:09:05;;;;;;;17.27;3.70;;;;;;;;;;5058284;28;20036;-30
2024/01/30 03:11:32;;;;;;;19.92;2.80;;;;;;;;;;5070036;28;20044;-29
2024/01/30 03:13:59;;;;;;;22.98;2.70;;;;;;;;;;5052823;28;20445;-32
2024/01/30 03:16:26;;;;;;;18.23;2.58;;;;;;;;;;5050560;28;20044;-30
2024/01/30 03:18:53;;;;;;;15.98;3.65;;;;;;;;;;5067877;28;20028;-31
2024/01/30 03:21:20;;;;;;;19.17;4.30;;;;;;;;;;5064197;28;20102;-31
2024/01/30 03:23:47;;;;;;;19.35;6.15;;;;;;;;;;5068809;28;20029;-30
2024/01/30 03:26:15;;;;;;;26.40;6.30;;;;;;;;;;5063852;28;20059;-30
2024/01/30 03:28:42;;;;;;;16.67;4.88;;;;;;;;;;5069501;28;20492;-31
2024/01/30 03:31:09;;;;;;;13.07;3.50;;;;;;;;;;5070320;28;20432;-31
2024/01/30 03:33:37;;;;;;;21.92;4.20;;;;;;;;;;5070388;28;20032;-31
2024/01/30 03:36:05;;;;;;;22.95;3.40;;;;;;;;;;5063963;28;20075;-32
2024/01/30 03:38:32;;;;;;;15.77;4.50;;;;;;;;;;5063741;28;20035;-31
2024/01/30 03:41:00;;;;;;;19.58;5.10;;;;;;;;;;5062924;28;20432;-32
2024/01/30 03:43:30;;;;;;;21.58;5.10;;;;;;;;;;5066552;28;20110;-32
2024/01/30 03:45:57;;;;;;;18.42;6.97;;;;;;;;;;5069475;28;20048;-31
2024/01/30 03:48:25;;;;;;;23.55;7.80;;;;;;;;;;5069069;28;20028;-32
2024/01/30 03:50:52;;;;;;;33.53;10.40;;;;;;;;;;5067580;28;20037;-31
2024/01/30 03:53:19;;;;;;;24.40;10.38;;;;;;;;;;5068188;22;20608;-29
2024/01/30 03:55:46;;;;;;;28.05;12.70;;;;;;;;;;5046431;28;20017;-28
2024/01/30 03:58:14;;;;;;;25.75;12.05;;;;;;;;;;5048238;28;20386;-30
2024/01/30 04:00:41;;;;;;;27.48;9.93;;;;;;;;;;5048498;28;20715;-29
2024/01/30 04:03:08;;;;;;;22.33;7.05;;;;;;;;;;5047039;28;20091;-30
2024/01/30 04:05:35;;;;;;;13.88;4.80;;;;;;;;;;5053222;28;20100;-31
2024/01/30 04:08:02;;;;;;;18.52;4.18;;;;;;;;;;5050808;28;20047;-31
2024/01/30 04:10:28;;;;;;;15.38;3.92;;;;;;;;;;5045624;28;20507;-30
2024/01/30 04:12:55;;;;;;;17.60;4.43;;;;;;;;;;5046050;28;20056;-29
2024/01/30 04:15:22;;;;;;;11.13;5.13;;;;;;;;;;5043720;28;20568;-30
2024/01/30 04:17:50;;;;;;;14.93;5.78;;;;;;;;;;5045177;28;21447;-31
2024/01/30 04:20:17;;;;;;;17.05;5.72;;;;;;;;;;5048514;28;20035;-30
2024/01/30 04:22:47;;;;;;;13.35;3.60;;;;;;;;;;5044908;28;20052;-30
2024/01/30 04:25:17;;;;;;;14.93;4.22;;;;;;;;;;5049666;28;20029;-31
2024/01/30 04:27:44;;;;;;;13.30;5.22;;;;;;;;;;5049855;28;20021;-29
2024/01/30 04:30:11;;;;;;;18.90;5.45;;;;;;;;;;5053317;28;20020;-30
2024/01/30 04:32:38;;;;;;;21.23;6.75;;;;;;;;;;5048692;28;20133;-30
2024/01/30 04:35:05;;;;;;;21.85;10.05;;;;;;;;;;5050515;28;20102;-29
2024/01/30 04:37:32;;;;;;;23.10;10.70;;;;;;;;;;5046132;28;20386;-29
2024/01/30 04:39:59;;;;;;;35.42;11.10;;;;;;;;;;5047637;28;20040;-29
2024/01/30 04:42:26;;;;;;;19.35;8.40;;;;;;;;;;5051878;28;20112;-28
2024/01/30 04:44:53;;;;;;;13.55;6.68;;;;;;;;;;5051167;28;20090;-29
2024/01/30 04:47:20;;;;;;;10.88;4.68;;;;;;;;;;5052198;28;20045;-30
2024/01/30 04:49:47;;;;;;;11.93;3.85;;;;;;;;;;5051964;28;20024;-30
2024/01/30 04:52:14;;;;;;;12.68;3.00;;;;;;;;;;5052945;28;20025;-28
2024/01/30 04:54:41;;;;;;;8.35;2.40;;;;;;;;;;5052079;28;20079;-29
2024/01/30 04:57:11;;;;;;;10.80;2.78;;;;;;;;;;5048845;28;20025;-29
2024/01/30 04:59:38;;;;;;;7.55;2.08;;;;;;;;;;5048346;28;20041;-29
2024/01/30 05:02:05;;;;;;;10.65;2.22;;;;;;;;;;5051755;28;20024;-30
2024/01/30 05:04:32;;;;;;;7.28;2.10;;;;;;;;;;5049740;28;20091;-29
2024/01/30 05:06:59;;;;;;;11.20;2.33;;;;;;;;;;5051321;28;20044;-30
2024/01/30 05:09:26;;;;;;;9.73;1.90;;;;;;;;;;5053094;28;20386;-29
2024/01/30 05:11:53;;;;;;;10.38;2.42;;;;;;;;;;5053137;28;20051;-30
2024/01/30 05:14:20;;;;;;;9.73;2.10;;;;;;;;;;5052049;28;20044;-29
2024/01/30 05:16:47;;;;;;;9.88;2.70;;;;;;;;;;5050167;28;20070;-30
2024/01/30 05:19:15;;;;;;;11.98;4.28;;;;;;;;;;5052588;28;20021;-30
2024/01/30 05:21:42;;;;;;;21.33;9.70;;;;;;;;;;5049705;28;20107;-31
2024/01/30 05:24:10;;;;;;;36.72;20.20;;;;;;;;;;5049714;28;20479;-31
2024/01/30 05:26:37;;;;;;;58.60;32.63;;;;;;;;;;5051280;28;20041;-29
2024/01/30 05:29:04;;;;;;;69.63;40.13;;;;;;;;;;5049518;28;20029;-28
2024/01/30 05:31:31;;;;;;;58.30;29.52;;;;;;;;;;5050313;28;20052;-29
2024/01/30 05:33:58;;;;;;;56.95;30.35;;;;;;;;;;5049531;28;20028;-28
2024/01/30 05:36:25;;;;;;;48.55;21.13;;;;;;;;;;5050980;28;20478;-28
2024/01/30 05:38:52;;;;;;;33.38;16.00;;;;;;;;;;5052098;28;21484;-31
2024/01/30 05:41:21;;;;;;;27.38;11.50;;;;;;;;;;5049959;28;20387;-31
2024/01/30 05:43:48;;;;;;;18.88;8.57;;;;;;;;;;5051325;28;20479;-31
2024/01/30 05:46:14;;;;;;;23.20;7.28;;;;;;;;;;5051912;28;20029;-28
2024/01/30 05:48:41;;;;;;;17.65;6.68;;;;;;;;;;5052363;28;20382;-28
2024/01/30 05:51:09;;;;;;;16.23;5.63;;;;;;;;;;5051996;28;20469;-29
2024/01/30 05:53:36;;;;;;;17.65;5.70;;;;;;;;;;5050841;28;20132;-31
2024/01/30 05:56:03;;;;;;;15.43;4.80;;;;;;;;;;5051616;28;20028;-31
2024/01/30 05:58:31;;;;;;;19.15;6.80;;;;;;;;;;5048958;28;20048;-28
2024/01/30 06:00:58;;;;;;;26.77;11.60;;;;;;;;;;5047771;28;20032;-29
2024/01/30 06:03:25;;;;;;;27.15;15.25;;;;;;;;;;5050965;28;20048;-28
2024/01/30 06:05:52;;;;;;;30.02;19.05;;;;;;;;;;5048128;28;20045;-29
2024/01/30 06:08:19;;;;;;;43.75;24.83;;;;;;;;;;5051054;28;20020;-28
2024/01/30 06:10:47;;;;;;;56.03;34.97;;;;;;;;;;5052231;28;20386;-28
2024/01/30 06:13:14;;;;;;;82.10;47.38;;;;;;;;;;5051982;28;20067;-28
2024/01/30 06:15:41;;;;;;;109.32;68.65;;;;;;;;;;5052013;28;20021;-28
2024/01/30 06:18:08;;;;;;;105.13;64.85;;;;;;;;;;5049039;28;20068;-28
2024/01/30 06:20:35;;;;;;;96.55;55.38;;;;;;;;;;5051829;28;20024;-28
2024/01/30 06:23:02;;;;;;;76.68;45.15;;;;;;;;;;5051864;28;20029;-28
2024/01/30 06:25:29;;;;;;;66.40;38.88;;;;;;;;;;5051524;28;20546;-29
2024/01/30 06:27:56;;;;;;;53.15;30.00;;;;;;;;;;5048699;28;20083;-28
2024/01/30 06:30:23;;;;;;;40.08;22.45;;;;;;;;;;5050452;28;20451;-28
2024/01/30 06:32:50;;;;;;;26.95;14.23;;;;;;;;;;5051509;28;20100;-28
2024/01/30 06:35:17;;;;;;;25.20;14.90;;;;;;;;;;5049013;28;20071;-28
2024/01/30 06:37:45;;;;;;;19.83;8.93;;;;;;;;;;5049271;28;20028;-28
2024/01/30 06:40:12;;;;;;;23.10;8.98;;;;;;;;;;5051762;28;20032;-29
2024/01/30 06:42:39;;;;;;;16.23;6.05;;;;;;;;;;5051641;28;20112;-28
2024/01/30 06:45:07;;;;;;;19.00;6.30;;;;;;;;;;5051357;28;20013;-28
2024/01/30 06:47:34;;;;;;;15.30;5.72;;;;;;;;;;5048459;28;20443;-29
2024/01/30 06:50:03;;;;;;;13.20;4.80;;;;;;;;;;5051442;28;20025;-31
2024/01/30 06:52:30;;;;;;;12.82;4.47;;;;;;;;;;5051683;28;20032;-31
2024/01/30 06:54:57;;;;;;;15.68;4.22;;;;;;;;;;5048585;28;20132;-31
2024/01/30 06:57:24;;;;;;;8.82;3.22;;;;;;;;;;5048475;28;20021;-31
2024/01/30 06:59:53;;;;;;;12.70;3.75;;;;;;;;;;5051164;28;20433;-31
2024/01/30 07:02:20;;;;;;;15.73;3.67;;;;;;;;;;5048987;28;20380;-31
2024/01/30 07:04:47;;;;;;;7.53;3.10;;;;;;;;;;5051052;28;20025;-31
2024/01/30 07:07:14;;;;;;;14.65;2.50;;;;;;;;;;5049602;28;20037;-32
2024/01/30 07:09:42;;;;;;;10.70;2.30;;;;;;;;;;5050923;28;20585;-28
2024/01/30 07:12:09;;;;;;;12.43;2.53;;;;;;;;;;5051105;28;20445;-28
2024/01/30 07:14:36;;;;;;;9.88;2.30;;;;;;;;;;5050771;28;20028;-28
2024/01/30 07:17:03;;;;;;;8.60;1.95;;;;;;;;;;5051021;28;20024;-28
2024/01/30 07:19:30;;;;;;;14.15;2.20;;;;;;;;;;5050813;28;20087;-28
2024/01/30 07:21:57;;;;;;;8.48;1.90;;;;;;;;;;5046937;28;20032;-28
2024/01/30 07:24:24;;;;;;;8.20;1.90;;;;;;;;;;5050883;28;20493;-28
2024/01/30 07:26:51;;;;;;;8.40;1.70;;;;;;;;;;5048925;28;20033;-28
2024/01/30 07:29:18;;;;;;;11.60;1.73;;;;;;;;;;5048020;28;20025;-28
2024/01/30 07:31:45;;;;;;;9.77;2.22;;;;;;;;;;5050793;28;20017;-28
2024/01/30 07:34:12;;;;;;;9.52;2.17;;;;;;;;;;5049222;28;20032;-29
2024/01/30 07:36:38;;;;;;;11.48;2.50;;;;;;;;;;5050602;28;20037;-28
2024/01/30 07:39:06;;;;;;;10.70;2.08;;;;;;;;;;5053466;28;20029;-28
2024/01/30 07:41:32;;;;;;;11.13;2.53;;;;;;;;;;5057391;28;20120;-28
2024/01/30 07:43:59;;;;;;;12.07;2.70;;;;;;;;;;5057311;28;20032;-28
2024/01/30 07:46:26;;;;;;;9.98;2.40;;;;;;;;;;5057373;28;20047;-28
2024/01/30 07:48:53;;;;;;;7.72;2.63;;;;;;;;;;5057078;28;20043;-29
2024/01/30 07:51:20;;;;;;;12.82;2.85;;;;;;;;;;5057403;28;20052;-28
2024/01/30 07:53:53;;;;;;;12.00;2.63;;;;;;;;;;5056867;28;20041;-29
2024/01/30 07:56:20;;;;;;;10.40;2.63;;;;;;;;;;5056936;28;20486;-28
2024/01/30 07:58:47;;;;;;;9.80;2.55;;;;;;;;;;5053884;28;20033;-28
2024/01/30 08:01:15;;;;;;;13.55;3.55;;;;;;;;;;5057256;28;20036;-29
2024/01/30 08:03:43;;;;;;;14.77;4.47;;;;;;;;;;5057129;28;20020;-28
2024/01/30 08:06:10;;;;;;;16.40;4.15;;;;;;;;;;5057140;28;20033;-28
2024/01/30 08:08:37;;;;;;;14.27;4.70;;;;;;;;;;5051126;28;20083;-28
2024/01/30 08:11:05;;;;;;;15.38;4.38;;;;;;;;;;5057199;28;20087;-28
2024/01/30 08:13:32;;;;;;;16.33;4.68;;;;;;;;;;5056974;28;20036;-28
2024/01/30 08:15:59;;;;;;;14.52;3.90;;;;;;;;;;5054073;28;20119;-28
2024/01/30 08:18:26;;;;;;;14.35;3.25;;;;;;;;;;5057034;28;20076;-28
2024/01/30 08:20:53;;;;;;;15.77;3.45;;;;;;;;;;5056997;28;20044;-28
2024/01/30 08:23:20;;;;;;;17.83;3.92;;;;;;;;;;5056870;28;20029;-28
2024/01/30 08:25:47;;;;;;;24.85;3.80;;;;;;;;;;5057324;28;20402;-28
2024/01/30 08:28:14;;;;;;;30.98;4.07;;;;;;;;;;5056578;28;20029;-31
2024/01/30 08:30:41;;;;;;;19.45;3.95;;;;;;;;;;5056970;28;20029;-29
2024/01/30 08:33:08;;;;;;;21.27;4.30;;;;;;;;;;5057072;28;20021;-29
2024/01/30 08:35:35;;;;;;;17.75;4.07;;;;;;;;;;5057250;28;20029;-36
2024/01/30 08:38:03;;;;;;;14.38;4.65;;;;;;;;;;5053884;28;20025;-29
2024/01/30 08:40:30;;;;;;;27.25;5.57;;;;;;;;;;5057206;28;20094;-29
2024/01/30 08:42:57;;;;;;;25.80;6.10;;;;;;;;;;5056667;28;20430;-29
2024/01/30 08:45:24;;;;;;;26.38;5.90;;;;;;;;;;5056894;28;20029;-29
2024/01/30 08:47:51;;;;;;;29.83;8.65;;;;;;;;;;5056352;28;20021;-29
2024/01/30 08:50:18;;;;;;;40.17;15.27;;;;;;;;;;5051066;28;20029;-29
2024/01/30 08:52:45;;;;;;;36.15;18.08;;;;;;;;;;5053559;28;20025;-29
2024/01/30 08:55:12;;;;;;;67.65;34.78;;;;;;;;;;5053314;28;20045;-28
2024/01/30 08:57:39;;;;;;;121.05;59.67;;;;;;;;;;5050658;28;20029;-29
2024/01/30 09:00:09;;;;;;;165.90;88.95;;;;;;;;;;5053605;28;20051;-29
2024/01/30 09:02:36;;;;;;;205.80;104.15;;;;;;;;;;5053570;28;20386;-29
2024/01/30 09:05:02;;;;;;;260.33;137.00;;;;;;;;;;5052166;28;20032;-28
2024/01/30 09:07:29;;;;;;;293.42;161.23;;;;;;;;;;5052572;28;20040;-29
2024/01/30 09:09:56;;;;;;;361.45;205.80;;;;;;;;;;5053198;28;20110;-29
2024/01/30 09:12:24;;;;;;;419.58;252.43;;;;;;;;;;5053311;28;20024;-29
2024/01/30 09:14:51;;;;;;;473.38;285.17;;;;;;;;;;5053116;28;20402;-29
2024/01/30 09:17:18;;;;;;;420.10;252.43;;;;;;;;;;5052412;28;20032;-29
2024/01/30 09:19:45;;;;;;;382.35;222.43;;;;;;;;;;5051284;28;20036;-29
2024/01/30 09:22:12;;;;;;;359.77;199.68;;;;;;;;;;5053117;28;20442;-29
2024/01/30 09:24:39;;;;;;;317.67;170.95;;;;;;;;;;5050384;28;20035;-29
2024/01/30 09:27:09;;;;;;;295.52;160.75;;;;;;;;;;5052975;28;20033;-29
2024/01/30 09:29:36;;;;;;;237.93;123.00;;;;;;;;;;5047612;28;20056;-29
2024/01/30 09:32:03;;;;;;;165.52;84.75;;;;;;;;;;5052572;28;20128;-29
2024/01/30 09:34:30;;;;;;;138.93;67.72;;;;;;;;;;5052814;28;20029;-28
2024/01/30 09:36:57;;;;;;;94.75;49.40;;;;;;;;;;5052781;28;20029;-29
2024/01/30 09:39:24;;;;;;;85.18;38.85;;;;;;;;;;5052469;28;20028;-29
2024/01/30 09:42:02;;;;;;;71.72;37.25;;;;;;;;;;5052785;28;20039;-29
2024/01/30 09:44:30;;;;;;;74.32;33.72;;;;;;;;;;5050067;28;20552;-29
2024/01/30 09:47:03;;;;;;;59.10;26.80;;;;;;;;;;5052493;28;20040;-29
2024/01/30 09:49:32;;;;;;;48.78;21.50;;;;;;;;;;5048901;28;20072;-29
2024/01/30 09:51:59;;;;;;;49.25;21.45;;;;;;;;;;5049955;28;20033;-29
2024/01/30 09:54:26;;;;;;;39.08;16.65;;;;;;;;;;5052331;28;20048;-29
2024/01/30 09:56:53;;;;;;;29.75;11.63;;;;;;;;;;5051959;28;20043;-29
2024/01/30 09:59:20;;;;;;;32.47;12.18;;;;;;;;;;5049444;28;20032;-29
2024/01/30 10:01:47;;;;;;;29.45;9.95;;;;;;;;;;5050798;28;20029;-30
2024/01/30 10:04:14;;;;;;;31.10;11.73;;;;;;;;;;5049511;28;20036;-29
2024/01/30 10:06:41;;;;;;;35.05;9.63;;;;;;;;;;5052236;28;20065;-29
2024/01/30 10:09:11;;;;;;;32.10;9.55;;;;;;;;;;5052235;28;20069;-29
2024/01/30 10:11:38;;;;;;;29.52;8.45;;;;;;;;;;5051787;28;20105;-29
2024/01/30 10:14:05;;;;;;;27.65;7.90;;;;;;;;;;5048648;28;20028;-29
2024/01/30 10:16:32;;;;;;;38.85;8.75;;;;;;;;;;5052146;28;20025;-29
2024/01/30 10:18:59;;;;;;;44.10;9.60;;;;;;;;;;5049425;28;20104;-29
2024/01/30 10:21:26;;;;;;;56.05;9.98;;;;;;;;;;5048680;28;20040;-28
2024/01/30 10:23:53;;;;;;;56.13;9.95;;;;;;;;;;5051691;28;20379;-29
2024/01/30 10:26:20;;;;;;;62.33;9.57;;;;;;;;;;5049274;28;20044;-29
2024/01/30 10:28:47;;;;;;;44.75;9.05;;;;;;;;;;5051891;28;20051;-29
2024/01/30 10:31:18;;;;;;;45.17;8.60;;;;;;;;;;5051756;28;20028;-29
2024/01/30 10:33:45;;;;;;;39.47;8.73;;;;;;;;;;5047823;28;20036;-29
2024/01/30 10:36:17;;;;;;;54.38;10.38;;;;;;;;;;5051758;28;20040;-29
2024/01/30 10:38:46;;;;;;;44.50;9.10;;;;;;;;;;5049745;28;20040;-29
2024/01/30 10:41:14;;;;;;;33.92;10.07;;;;;;;;;;5049183;28;20060;-29
2024/01/30 10:43:53;;;;;;;41.33;9.95;;;;;;;;;;5045935;28;20479;-29
2024/01/30 10:46:22;;;;;;;48.10;10.00;;;;;;;;;;5050520;28;20079;-29
2024/01/30 10:49:01;;;;;;;39.50;9.30;;;;;;;;;;5050844;28;20033;-29
2024/01/30 10:51:28;;;;;;;48.85;9.48;;;;;;;;;;5049448;28;20040;-29
2024/01/30 10:53:57;;;;;;;54.80;10.13;;;;;;;;;;5046469;28;20087;-29
2024/01/30 10:56:24;;;;;;;60.38;9.85;;;;;;;;;;5049982;28;20107;-28
2024/01/30 10:58:52;;;;;;;57.33;10.07;;;;;;;;;;5049223;28;20055;-28
2024/01/30 11:01:23;;;;;;;57.65;9.32;;;;;;;;;;5051166;28;20029;-28
2024/01/30 11:03:52;;;;;;;48.78;9.07;;;;;;;;;;5048746;28;20020;-29
2024/01/30 11:06:19;;;;;;;48.63;8.18;;;;;;;;;;5051002;28;20040;-29
2024/01/30 11:09:03;;;;;;;49.95;7.30;;;;;;;;;;5050963;28;20112;-29
2024/01/30 11:11:29;;;;;;;46.58;6.57;;;;;;;;;;5050922;28;20033;-29
2024/01/30 11:13:56;;;;;;;42.38;6.80;;;;;;;;;;5047092;28;20487;-29
2024/01/30 11:16:23;;;;;;;36.13;5.05;;;;;;;;;;5051002;28;20534;-28
2024/01/30 11:18:53;;;;;;;37.83;5.60;;;;;;;;;;5050532;28;20070;-30
2024/01/30 11:21:20;;;;;;;38.05;4.45;;;;;;;;;;5049483;28;20075;-29
2024/01/30 11:23:47;;;;;;;38.17;4.38;;;;;;;;;;5050435;28;20534;-29
2024/01/30 11:26:14;;;;;;;31.42;5.32;;;;;;;;;;5050773;28;20075;-29
2024/01/30 11:28:41;;;;;;;45.20;4.82;;;;;;;;;;5050857;28;20033;-28
2024/01/30 11:31:08;;;;;;;42.85;4.57;;;;;;;;;;5045481;28;20036;-28
2024/01/30 11:33:35;;;;;;;23.40;4.65;;;;;;;;;;5051067;28;20111;-29
2024/01/30 11:36:02;;;;;;;38.92;5.10;;;;;;;;;;5050973;28;20033;-30
2024/01/30 11:38:30;;;;;;;39.28;5.28;;;;;;;;;;5050488;28;20171;-27
2024/01/30 11:40:57;;;;;;;26.27;4.80;;;;;;;;;;5050607;28;20100;-27
2024/01/30 11:43:24;;;;;;;32.65;4.50;;;;;;;;;;5050309;28;20506;-27
2024/01/30 11:45:52;;;;;;;35.88;4.13;;;;;;;;;;5048836;28;20037;-29
2024/01/30 11:48:19;;;;;;;35.15;4.43;;;;;;;;;;5050765;28;20029;-28
2024/01/30 11:50:46;;;;;;;37.33;4.05;;;;;;;;;;5050001;28;20025;-29
2024/01/30 11:53:13;;;;;;;28.45;4.28;;;;;;;;;;5050322;28;20025;-28
2024/01/30 11:55:40;;;;;;;21.05;3.33;;;;;;;;;;5050513;28;20135;-29
2024/01/30 11:58:07;;;;;;;34.85;4.18;;;;;;;;;;5051199;28;20094;-29
2024/01/30 12:00:34;;;;;;;37.10;3.95;;;;;;;;;;5050316;28;20039;-29
2024/01/30 12:03:01;;;;;;;29.05;4.00;;;;;;;;;;5050024;28;20029;-29
2024/01/30 12:05:29;;;;;;;41.28;4.53;;;;;;;;;;5043218;28;20390;-29
2024/01/30 12:07:58;;;;;;;32.28;4.03;;;;;;;;;;5042345;28;20025;-29
2024/01/30 12:10:26;;;;;;;36.35;4.03;;;;;;;;;;5039941;28;20033;-28
2024/01/30 12:12:53;;;;;;;32.55;3.30;;;;;;;;;;5039566;28;20534;-28
2024/01/30 12:15:22;;;;;;;23.38;3.22;;;;;;;;;;5050389;28;20055;-29
2024/01/30 12:17:49;;;;;;;27.60;4.18;;;;;;;;;;5051158;28;20017;-28
2024/01/30 12:20:18;;;;;;;42.50;4.35;;;;;;;;;;5051020;28;20053;-29
2024/01/30 12:22:46;;;;;;;27.88;3.20;;;;;;;;;;5044668;28;20032;-29
2024/01/30 12:25:14;;;;;;;34.22;3.88;;;;;;;;;;5046764;28;20479;-29
2024/01/30 12:27:43;;;;;;;27.08;3.53;;;;;;;;;;5044245;28;20768;-29
2024/01/30 12:30:11;;;;;;;20.35;3.83;;;;;;;;;;5054186;28;20024;-29
2024/01/30 12:32:40;;;;;;;33.58;4.55;;;;;;;;;;5050550;28;20025;-29
2024/01/30 12:35:14;;;;;;;31.25;4.53;;;;;;;;;;5048538;28;20037;-29
2024/01/30 12:37:41;;;;;;;36.38;4.93;;;;;;;;;;5045210;28;20022;-29
2024/01/30 12:40:09;;;;;;;29.02;4.93;;;;;;;;;;5045179;28;20068;-29
2024/01/30 12:42:36;;;;;;;34.67;7.65;;;;;;;;;;5048377;28;20079;-29
2024/01/30 12:45:06;;;;;;;36.70;6.60;;;;;;;;;;5054458;28;20057;-28
2024/01/30 12:47:33;;;;;;;24.77;5.78;;;;;;;;;;5054283;28;20053;-28
2024/01/30 12:50:00;;;;;;;30.70;6.95;;;;;;;;;;5054331;28;20017;-28
2024/01/30 12:52:27;;;;;;;25.75;6.80;;;;;;;;;;5053516;28;20032;-28
2024/01/30 12:54:54;;;;;;;33.05;9.20;;;;;;;;;;5053949;28;20541;-28
2024/01/30 12:57:21;;;;;;;30.00;8.98;;;;;;;;;;5054366;28;20021;-28
2024/01/30 12:59:49;;;;;;;38.17;9.55;;;;;;;;;;5052860;28;20074;-28
2024/01/30 13:02:16;;;;;;;34.88;11.00;;;;;;;;;;5052572;28;20047;-30
2024/01/30 13:04:43;;;;;;;37.55;10.40;;;;;;;;;;5053680;28;20063;-28
2024/01/30 13:07:10;;;;;;;38.13;11.88;;;;;;;;;;5054059;28;20033;-28
2024/01/30 13:09:37;;;;;;;37.75;13.20;;;;;;;;;;5053436;28;20067;-28
2024/01/30 13:12:05;;;;;;;38.30;12.70;;;;;;;;;;5051215;28;20489;-28
2024/01/30 13:14:32;;;;;;;40.75;14.07;;;;;;;;;;5053451;28;20033;-28
2024/01/30 13:16:58;;;;;;;43.80;13.55;;;;;;;;;;5053794;28;20029;-28
2024/01/30 13:19:25;;;;;;;41.83;13.48;;;;;;;;;;5053762;28;20044;-28
2024/01/30 13:21:52;;;;;;;43.80;13.63;;;;;;;;;;5052619;28;20430;-29
2024/01/30 13:24:22;;;;;;;35.97;12.90;;;;;;;;;;5053082;28;20028;-28
2024/01/30 13:26:49;;;;;;;40.28;13.98;;;;;;;;;;5053073;28;20086;-28
2024/01/30 13:29:16;;;;;;;39.97;14.32;;;;;;;;;;5050419;28;20508;-28
2024/01/30 13:31:45;;;;;;;40.22;14.10;;;;;;;;;;5051208;28;20029;-28
2024/01/30 13:34:13;;;;;;;39.78;14.95;;;;;;;;;;5052766;28;20061;-29
2024/01/30 13:36:41;;;;;;;36.30;14.02;;;;;;;;;;5052645;28;20032;-28
2024/01/30 13:39:10;;;;;;;36.35;13.95;;;;;;;;;;5052938;28;20028;-28
2024/01/30 13:41:37;;;;;;;35.55;13.43;;;;;;;;;;5050241;28;20025;-28
2024/01/30 13:44:04;;;;;;;38.85;15.60;;;;;;;;;;5047660;28;20398;-29
2024/01/30 13:46:32;;;;;;;41.55;16.27;;;;;;;;;;5052603;28;20482;-29
2024/01/30 13:48:58;;;;;;;36.28;14.50;;;;;;;;;;5052735;28;20490;-29
2024/01/30 13:51:26;;;;;;;32.55;14.45;;;;;;;;;;5052690;28;20179;-29
2024/01/30 13:53:52;;;;;;;33.42;14.35;;;;;;;;;;5052369;28;20051;-29
2024/01/30 13:56:20;;;;;;;34.55;14.52;;;;;;;;;;5052340;28;20037;-29
2024/01/30 13:58:50;;;;;;;38.53;15.25;;;;;;;;;;5052645;28;20025;-29
2024/01/30 14:01:17;;;;;;;40.38;15.52;;;;;;;;;;5049898;28;20407;-29
2024/01/30 14:03:44;;;;;;;41.03;16.60;;;;;;;;;;5052448;28;20395;-29
2024/01/30 14:06:12;;;;;;;39.97;18.58;;;;;;;;;;5052347;28;20037;-29
2024/01/30 14:08:39;;;;;;;45.45;18.98;;;;;;;;;;5052429;28;20021;-29
2024/01/30 14:11:13;;;;;;;42.35;18.40;;;;;;;;;;5052325;28;20021;-29
2024/01/30 14:13:40;;;;;;;45.25;19.08;;;;;;;;;;5047143;28;20068;-29
2024/01/30 14:16:07;;;;;;;39.35;19.77;;;;;;;;;;5052364;28;20028;-29
2024/01/30 14:18:34;;;;;;;41.15;19.02;;;;;;;;;;5051724;28;20029;-29
2024/01/30 14:21:01;;;;;;;47.03;19.08;;;;;;;;;;5051373;28;20059;-29
2024/01/30 14:23:28;;;;;;;41.13;19.75;;;;;;;;;;5046796;28;20043;-29
2024/01/30 14:25:55;;;;;;;46.03;20.83;;;;;;;;;;5051639;28;20083;-29
2024/01/30 14:28:22;;;;;;;40.65;19.80;;;;;;;;;;5050037;28;20104;-30